Time;durP1;ratioP1;P1;durP2;ratioP2;P2;SDS_P1;SDS_P2;PMS_P1;PMS_P2;Temp;Humidity;BMP_temperature;BMP_pressure;BME280_temperature;BME280_humidity;BME280_pressure;Samples;Min_cycle;Max_cycle;Signal;HPM_P1;HPM_P2
2023/06/15 00:00:24;;;;;;;;;;;;;;;16.07;100.00;99560.69;5014596;28;913;-56
2023/06/15 00:02:51;;;;;;;;;;;;;;;16.17;100.00;99558.78;5014545;28;846;-56
2023/06/15 00:05:17;;;;;;;;;;;;;;;16.23;100.00;99568.16;5014439;28;1894;-56
2023/06/15 00:07:44;;;;;;;;;;;;;;;16.24;100.00;99567.72;5014456;28;897;-56
2023/06/15 00:10:11;;;;;;;;;;;;;;;16.15;100.00;99558.44;5014454;28;966;-56
2023/06/15 00:12:38;;;;;;;;;;;;;;;16.00;100.00;99563.69;5014406;28;944;-56
2023/06/15 00:15:06;;;;;;;;;;;;;;;15.87;100.00;99567.28;5014093;28;1142;-56
2023/06/15 00:17:37;;;;;;;;;;;;;;;15.81;100.00;99566.25;5014287;28;938;-56
2023/06/15 00:20:06;;;;;;;;;;;;;;;15.80;100.00;99561.91;5014263;28;827;-56
2023/06/15 00:22:34;;;;;;;;;;;;;;;15.75;100.00;99568.03;5014122;28;834;-56
2023/06/15 00:25:01;;;;;;;;;;;;;;;15.67;100.00;99553.50;5013162;28;1969;-56
2023/06/15 00:27:27;;;;;;;;;;;;;;;15.60;100.00;99552.94;5013909;28;847;-56
2023/06/15 00:29:54;;;;;;;;;;;;;;;15.51;100.00;99546.00;5014061;28;878;-56
2023/06/15 00:32:21;;;;;;;;;;;;;;;15.40;100.00;99544.75;5013950;28;807;-56
2023/06/15 00:34:47;;;;;;;;;;;;;;;15.31;100.00;99540.59;5013987;28;799;-56
2023/06/15 00:37:14;;;;;;;;;;;;;;;15.21;100.00;99544.50;5013895;28;832;-56
2023/06/15 00:39:41;;;;;;;;;;;;;;;15.14;100.00;99546.69;5013874;28;792;-56
2023/06/15 00:42:07;;;;;;;;;;;;;;;15.05;100.00;99544.53;5013850;28;1014;-56
2023/06/15 00:44:34;;;;;;;;;;;;;;;14.98;100.00;99553.06;5013647;28;2374;-56
2023/06/15 00:47:01;;;;;;;;;;;;;;;14.95;100.00;99553.94;5013716;28;792;-56
2023/06/15 00:49:28;;;;;;;;;;;;;;;14.95;100.00;99551.16;5013648;28;898;-56
2023/06/15 00:51:55;;;;;;;;;;;;;;;14.94;100.00;99555.19;5013609;28;847;-56
2023/06/15 00:54:23;;;;;;;;;;;;;;;14.95;100.00;99548.38;5013839;28;792;-56
2023/06/15 00:56:50;;;;;;;;;;;;;;;14.96;100.00;99550.72;5013459;28;879;-56
2023/06/15 00:59:17;;;;;;;;;;;;;;;15.02;100.00;99545.41;5013557;28;870;-56
2023/06/15 01:01:44;;;;;;;;;;;;;;;15.08;100.00;99549.22;5013468;28;854;-56
2023/06/15 01:04:11;;;;;;;;;;;;;;;15.11;100.00;99548.34;5013570;28;1894;-56
2023/06/15 01:06:41;;;;;;;;;;;;;;;15.13;100.00;99551.47;5013381;28;826;-56
2023/06/15 01:09:11;;;;;;;;;;;;;;;15.16;100.00;99545.00;5013275;28;939;-56
2023/06/15 01:11:37;;;;;;;;;;;;;;;15.17;100.00;99538.25;5013667;28;1043;-56
2023/06/15 01:14:04;;;;;;;;;;;;;;;15.14;100.00;99539.09;5012955;28;1301;-56
2023/06/15 01:16:39;;;;;;;;;;;;;;;15.14;100.00;99535.53;5013211;28;862;-56
2023/06/15 01:19:16;;;;;;;;;;;;;;;15.16;100.00;99531.09;5013111;28;795;-56
2023/06/15 01:21:44;;;;;;;;;;;;;;;15.19;100.00;99530.22;5013088;28;882;-56
2023/06/15 01:24:18;;;;;;;;;;;;;;;15.24;100.00;99535.25;5012976;28;1918;-56
2023/06/15 01:26:46;;;;;;;;;;;;;;;15.28;100.00;99527.56;5012928;28;881;-56
2023/06/15 01:29:16;;;;;;;;;;;;;;;15.36;100.00;99519.78;5012964;28;799;-56
2023/06/15 01:31:43;;;;;;;;;;;;;;;15.41;100.00;99530.38;5012950;28;838;-56
2023/06/15 01:34:09;;;;;;;;;;;;;;;15.41;100.00;99543.53;5012887;28;846;-56
2023/06/15 01:36:36;;;;;;;;;;;;;;;15.39;100.00;99538.41;5012642;28;849;-56
2023/06/15 01:39:03;;;;;;;;;;;;;;;15.35;100.00;99542.53;5012808;28;783;-56
2023/06/15 01:41:31;;;;;;;;;;;;;;;15.27;100.00;99539.91;5012659;28;861;-56
2023/06/15 01:43:58;;;;;;;;;;;;;;;15.22;100.00;99542.47;5012610;28;1981;-56
2023/06/15 01:46:25;;;;;;;;;;;;;;;15.14;100.00;99539.09;5012662;28;795;-56
2023/06/15 01:48:53;;;;;;;;;;;;;;;15.06;100.00;99546.09;5012586;28;787;-56
2023/06/15 01:51:21;;;;;;;;;;;;;;;15.00;100.00;99550.63;5012571;28;847;-56
2023/06/15 01:53:47;;;;;;;;;;;;;;;14.92;100.00;99552.06;5012538;28;792;-56
2023/06/15 01:56:15;;;;;;;;;;;;;;;14.86;100.00;99552.56;5012376;28;788;-56
2023/06/15 01:58:42;;;;;;;;;;;;;;;14.83;100.00;99555.44;5012426;28;878;-56
2023/06/15 02:01:08;;;;;;;;;;;;;;;14.77;100.00;99544.06;5012409;28;822;-56
2023/06/15 02:03:35;;;;;;;;;;;;;;;14.73;100.00;99548.94;5012536;28;1894;-56
2023/06/15 02:06:02;;;;;;;;;;;;;;;14.71;100.00;99551.38;5012351;28;812;-56
2023/06/15 02:08:29;;;;;;;;;;;;;;;14.68;100.00;99546.72;5012254;28;862;-56
2023/06/15 02:10:56;;;;;;;;;;;;;;;14.65;100.00;99544.78;5012466;28;1028;-56
2023/06/15 02:13:22;;;;;;;;;;;;;;;14.63;100.00;99545.22;5012194;28;866;-56
2023/06/15 02:15:49;;;;;;;;;;;;;;;14.65;100.00;99545.56;5012031;28;1384;-56
2023/06/15 02:18:16;;;;;;;;;;;;;;;14.67;100.00;99547.91;5012152;28;803;-56
2023/06/15 02:20:43;;;;;;;;;;;;;;;14.68;100.00;99543.94;5012164;28;811;-56
2023/06/15 02:23:12;;;;;;;;;;;;;;;14.68;100.00;99549.50;4994385;28;1237;-56
2023/06/15 02:25:39;;;;;;;;;;;;;;;14.68;100.00;99547.47;5012137;28;819;-56
2023/06/15 02:28:06;;;;;;;;;;;;;;;14.69;100.00;99548.25;5012001;28;835;-56
2023/06/15 02:30:33;;;;;;;;;;;;;;;14.67;100.00;99547.91;5011868;28;866;-56
2023/06/15 02:33:00;;;;;;;;;;;;;;;14.65;100.00;99547.56;5011948;28;831;-56
2023/06/15 02:35:27;;;;;;;;;;;;;;;14.65;100.00;99542.00;5011863;28;902;-56
2023/06/15 02:37:54;;;;;;;;;;;;;;;14.67;100.00;99539.56;5011872;28;827;-56
2023/06/15 02:40:21;;;;;;;;;;;;;;;14.66;100.00;99538.03;5011836;28;774;-56
2023/06/15 02:42:48;;;;;;;;;;;;;;;14.66;100.00;99540.81;5011833;28;807;-56
2023/06/15 02:45:15;;;;;;;;;;;;;;;14.66;100.00;99543.59;5011721;28;1949;-56
2023/06/15 02:47:42;;;;;;;;;;;;;;;14.65;100.00;99542.78;5011363;28;799;-56
2023/06/15 02:50:09;;;;;;;;;;;;;;;14.66;100.00;99544.34;5011770;28;831;-56
2023/06/15 02:52:37;;;;;;;;;;;;;;;14.68;100.00;99543.94;5011691;28;874;-56
2023/06/15 02:55:03;;;;;;;;;;;;;;;14.68;100.00;99539.13;5011615;28;879;-56
2023/06/15 02:57:30;;;;;;;;;;;;;;;14.71;100.00;99543.03;5011648;28;854;-56
2023/06/15 02:59:57;;;;;;;;;;;;;;;14.73;100.00;99539.81;5011790;28;858;-56
2023/06/15 03:02:24;;;;;;;;;;;;;;;14.75;100.00;99540.94;5011641;28;865;-56
2023/06/15 03:04:50;;;;;;;;;;;;;;;14.77;100.00;99541.28;5011530;28;1878;-56
2023/06/15 03:07:20;;;;;;;;;;;;;;;14.79;100.00;99549.97;5011589;28;861;-56
2023/06/15 03:09:47;;;;;;;;;;;;;;;14.80;100.00;99562.66;5011584;28;895;-56
2023/06/15 03:12:14;;;;;;;;;;;;;;;14.82;100.00;99562.22;5011505;28;846;-56
2023/06/15 03:14:44;;;;;;;;;;;;;;;14.82;100.00;99563.00;5011369;28;1362;-56
2023/06/15 03:17:15;;;;;;;;;;;;;;;14.83;100.00;99567.38;5011639;28;830;-56
2023/06/15 03:19:43;;;;;;;;;;;;;;;14.85;100.00;99566.91;5011417;28;944;-56
2023/06/15 03:22:10;;;;;;;;;;;;;;;14.88;100.00;99574.41;5011447;28;846;-56
2023/06/15 03:24:37;;;;;;;;;;;;;;;14.93;100.00;99565.50;5011321;28;1910;-56
2023/06/15 03:27:06;;;;;;;;;;;;;;;15.02;100.00;99564.88;5011314;28;792;-56
2023/06/15 03:29:36;;;;;;;;;;;;;;;15.13;100.00;99570.97;5012229;28;771;-56
2023/06/15 03:32:04;;;;;;;;;;;;;;;15.24;100.00;99574.22;5011314;28;867;-56
2023/06/15 03:34:32;;;;;;;;;;;;;;;15.38;100.00;99569.47;5011315;28;858;-56
2023/06/15 03:36:59;;;;;;;;;;;;;;;15.49;100.00;99573.53;5011351;28;843;-56
2023/06/15 03:39:25;;;;;;;;;;;;;;;15.56;100.00;99566.19;5011290;28;875;-56
2023/06/15 03:41:52;;;;;;;;;;;;;;;15.62;100.00;99579.13;5011332;28;804;-56
2023/06/15 03:44:20;;;;;;;;;;;;;;;15.67;100.00;99573.00;5011105;28;1949;-56
2023/06/15 03:46:47;;;;;;;;;;;;;;;15.73;100.00;99576.06;5011353;28;863;-56
2023/06/15 03:49:14;;;;;;;;;;;;;;;15.80;100.00;99575.84;5011539;28;807;-56
2023/06/15 03:51:41;;;;;;;;;;;;;;;15.92;100.00;99572.28;5011204;28;804;-56
2023/06/15 03:54:08;;;;;;;;;;;;;;;16.08;100.00;99570.63;5011084;28;807;-56
2023/06/15 03:56:34;;;;;;;;;;;;;;;16.17;100.00;99556.78;5011145;28;803;-56
2023/06/15 03:59:01;;;;;;;;;;;;;;;16.27;100.00;99560.47;5011813;28;890;-56
2023/06/15 04:01:28;;;;;;;;;;;;;;;16.31;100.00;99555.56;5014894;28;807;-56
2023/06/15 04:03:55;;;;;;;;;;;;;;;16.44;100.00;99556.31;5014574;28;1945;-56
2023/06/15 04:06:22;;;;;;;;;;;;;;;16.72;100.00;99562.94;5014514;28;815;-56
2023/06/15 04:08:49;;;;;;;;;;;;;;;17.02;100.00;99573.94;5014517;28;807;-56
2023/06/15 04:11:16;;;;;;;;;;;;;;;17.21;100.00;99572.84;5014739;28;935;-56
2023/06/15 04:13:42;;;;;;;;;;;;;;;17.34;100.00;99564.41;5014080;28;1262;-56
2023/06/15 04:16:10;;;;;;;;;;;;;;;17.42;100.00;99578.91;5014406;28;830;-56
2023/06/15 04:18:38;;;;;;;;;;;;;;;17.51;100.00;99576.16;5014359;28;909;-56
2023/06/15 04:21:06;;;;;;;;;;;;;;;17.68;100.00;99577.50;5014312;28;886;-56
2023/06/15 04:23:33;;;;;;;;;;;;;;;17.83;100.00;99583.38;5014069;28;1910;-56
2023/06/15 04:26:00;;;;;;;;;;;;;;;17.95;100.00;99578.94;5014120;28;843;-56
2023/06/15 04:28:27;;;;;;;;;;;;;;;18.07;100.00;99572.47;5014188;28;864;-56
2023/06/15 04:31:08;;;;;;;;;;;;;;;18.24;100.00;99577.81;5014090;28;842;-56
2023/06/15 04:33:36;;;;;;;;;;;;;;;18.41;100.00;99581.13;5013996;28;862;-56
2023/06/15 04:36:04;;;;;;;;;;;;;;;18.57;100.00;99583.66;5014354;28;815;-56
2023/06/15 04:38:31;;;;;;;;;;;;;;;18.69;100.00;99587.56;5014182;28;804;-56
2023/06/15 04:40:59;;;;;;;;;;;;;;;18.76;100.00;99587.28;5014186;28;791;-56
2023/06/15 04:43:26;;;;;;;;;;;;;;;18.91;100.00;99587.50;5013854;28;1940;-56
2023/06/15 04:45:53;;;;;;;;;;;;;;;19.06;100.00;99587.66;5013973;28;910;-56
2023/06/15 04:48:19;;;;;;;;;;;;;;;19.27;100.00;99592.34;5014055;28;854;-56
2023/06/15 04:50:48;;;;;;;;;;;;;;;19.33;100.00;99598.06;5014099;28;860;-55
2023/06/15 04:53:17;;;;;;;;;;;;;;;19.46;100.00;99598.72;5013807;28;948;-56
2023/06/15 04:55:44;;;;;;;;;;;;;;;19.54;100.00;99599.94;5013555;28;866;-56
2023/06/15 04:58:12;;;;;;;;;;;;;;;19.68;100.00;99595.69;5013934;28;886;-56
2023/06/15 05:00:39;;;;;;;;;;;;;;;19.89;100.00;99590.41;5013493;28;839;-56
2023/06/15 05:03:06;;;;;;;;;;;;;;;19.99;100.00;99594.72;5013486;28;831;-55
2023/06/15 05:05:32;;;;;;;;;;;;;;;20.06;100.00;99588.00;5013347;28;1890;-56
2023/06/15 05:07:59;;;;;;;;;;;;;;;20.22;100.00;99590.41;5013396;28;846;-55
2023/06/15 05:10:26;;;;;;;;;;;;;;;20.39;100.00;99590.81;5013000;28;1017;-55
2023/06/15 05:12:53;;;;;;;;;;;;;;;20.57;100.00;99587.94;5013330;28;847;-55
2023/06/15 05:15:21;;;;;;;;;;;;;;;20.77;100.00;99590.16;5013127;28;1274;-55
2023/06/15 05:17:47;;;;;;;;;;;;;;;20.77;100.00;99590.16;5013147;28;843;-55
2023/06/15 05:20:15;;;;;;;;;;;;;;;20.84;100.00;99591.81;5013241;28;862;-55
2023/06/15 05:22:41;;;;;;;;;;;;;;;21.00;100.00;99599.06;5012978;28;796;-55
2023/06/15 05:25:08;;;;;;;;;;;;;;;21.27;100.00;99598.03;5013003;28;1938;-55
2023/06/15 05:27:36;;;;;;;;;;;;;;;21.55;100.00;99595.00;5012999;28;866;-55
2023/06/15 05:30:07;;;;;;;;;;;;;;;21.98;100.00;99601.91;5012888;28;911;-55
2023/06/15 05:32:37;;;;;;;;;;;;;;;22.63;100.00;99601.88;5013663;28;835;-54
2023/06/15 05:35:05;;;;;;;;;;;;;;;23.16;100.00;99599.25;5012889;28;863;-55
2023/06/15 05:37:33;;;;;;;;;;;;;;;23.37;100.00;99600.03;5013137;28;850;-56
2023/06/15 05:40:01;;;;;;;;;;;;;;;23.25;100.00;99601.94;4995177;28;1252;-55
2023/06/15 05:42:29;;;;;;;;;;;;;;;23.26;100.00;99597.06;5012776;28;894;-55
2023/06/15 05:44:56;;;;;;;;;;;;;;;23.38;100.00;99604.38;5012530;28;1910;-55
2023/06/15 05:47:23;;;;;;;;;;;;;;;23.64;100.00;99601.56;5012512;28;923;-55
2023/06/15 05:49:50;;;;;;;;;;;;;;;23.65;100.00;99601.06;5012579;28;859;-55
2023/06/15 05:52:17;;;;;;;;;;;;;;;23.90;100.00;99598.78;5012524;28;800;-56
2023/06/15 05:54:45;;;;;;;;;;;;;;;24.06;100.00;99605.81;5012471;28;863;-56
2023/06/15 05:57:12;;;;;;;;;;;;;;;24.19;100.00;99611.81;5012516;28;819;-53
2023/06/15 05:59:39;;;;;;;;;;;;;;;24.53;100.00;99608.50;5012461;28;799;-55
2023/06/15 06:02:08;;;;;;;;;;;;;;;25.14;100.00;99618.56;5012409;28;874;-54
2023/06/15 06:04:35;;;;;;;;;;;;;;;26.00;100.00;99616.22;5012563;28;1890;-54
2023/06/15 06:07:05;;;;;;;;;;;;;;;26.95;100.00;99620.22;5012293;28;850;-55
2023/06/15 06:09:34;;;;;;;;;;;;;;;27.88;100.00;99612.25;5012607;28;854;-54
2023/06/15 06:12:01;;;;;;;;;;;;;;;28.45;100.00;99613.31;5012579;28;959;-54
2023/06/15 06:14:28;;;;;;;;;;;;;;;28.67;96.43;99612.31;5011901;28;1410;-55
2023/06/15 06:16:55;;;;;;;;;;;;;;;28.86;94.63;99618.06;5012374;28;902;-54
2023/06/15 06:19:22;;;;;;;;;;;;;;;29.32;92.58;99621.16;5012125;28;799;-54
2023/06/15 06:21:49;;;;;;;;;;;;;;;29.80;89.66;99607.28;5011190;28;878;-55
2023/06/15 06:24:17;;;;;;;;;;;;;;;29.54;88.87;99605.06;5012009;28;1906;-54
2023/06/15 06:26:43;;;;;;;;;;;;;;;28.80;90.66;99608.81;5011946;28;874;-54
2023/06/15 06:29:10;;;;;;;;;;;;;;;28.62;92.93;99610.31;5012036;28;866;-54
2023/06/15 06:31:37;;;;;;;;;;;;;;;29.24;90.83;99617.38;5012228;28;799;-54
2023/06/15 06:34:05;;;;;;;;;;;;;;;29.73;88.28;99602.22;4994508;28;808;-55
2023/06/15 06:36:32;;;;;;;;;;;;;;;29.69;87.89;99608.19;5011895;28;827;-55
2023/06/15 06:39:00;;;;;;;;;;;;;;;29.75;87.38;99606.06;5011951;28;811;-56
2023/06/15 06:41:27;;;;;;;;;;;;;;;30.02;86.13;99611.84;5012027;28;894;-56
2023/06/15 06:43:54;;;;;;;;;;;;;;;30.72;83.28;99609.56;5011820;28;1882;-55
2023/06/15 06:46:22;;;;;;;;;;;;;;;31.43;75.50;99609.19;5011691;28;858;-56
2023/06/15 06:48:49;;;;;;;;;;;;;;;31.97;72.34;99607.66;5011796;28;850;-56
2023/06/15 06:51:16;;;;;;;;;;;;;;;32.86;63.59;99608.75;5011814;28;814;-56
2023/06/15 06:53:43;;;;;;;;;;;;;;;33.61;57.06;99614.63;5011857;28;830;-57
2023/06/15 06:56:10;;;;;;;;;;;;;;;33.47;53.66;99603.28;5011754;28;874;-56
2023/06/15 06:58:38;;;;;;;;;;;;;;;34.13;51.37;99601.72;5011696;28;815;-56
2023/06/15 07:01:04;;;;;;;;;;;;;;;34.43;45.84;99602.28;5011652;28;851;-56
2023/06/15 07:03:32;;;;;;;;;;;;;;;34.53;43.10;99594.63;5011641;28;1890;-57
2023/06/15 07:05:59;;;;;;;;;;;;;;;34.45;42.29;99596.75;5011617;28;854;-56
2023/06/15 07:08:26;;;;;;;;;;;;;;;34.63;42.17;99589.88;5011460;28;958;-57
2023/06/15 07:10:53;;;;;;;;;;;;;;;34.80;41.76;99588.47;5011827;28;910;-56
2023/06/15 07:13:20;;;;;;;;;;;;;;;35.07;40.79;99583.00;5011532;28;874;-56
2023/06/15 07:15:49;;;;;;;;;;;;;;;34.97;39.65;99579.97;5011335;28;1281;-56
2023/06/15 07:18:16;;;;;;;;;;;;;;;35.06;39.09;99582.25;5011542;28;897;-56
2023/06/15 07:20:43;;;;;;;;;;;;;;;35.37;38.27;99574.25;5011330;28;822;-56
2023/06/15 07:23:10;;;;;;;;;;;;;;;35.85;36.20;99578.38;5011496;28;800;-56
2023/06/15 07:25:37;;;;;;;;;;;;;;;35.80;35.79;99577.28;5011359;28;1895;-56
2023/06/15 07:28:04;;;;;;;;;;;;;;;35.15;36.89;99580.91;5011401;28;856;-56
2023/06/15 07:30:31;;;;;;;;;;;;;;;35.06;36.87;99585.13;5011372;28;847;-56
2023/06/15 07:32:57;;;;;;;;;;;;;;;34.97;37.21;99577.91;4994156;28;1391;-56
2023/06/15 07:35:24;;;;;;;;;;;;;;;34.99;37.69;99580.16;5015331;28;819;-55
2023/06/15 07:37:51;;;;;;;;;;;;;;;35.12;37.59;99576.28;5015090;28;850;-56
2023/06/15 07:40:17;;;;;;;;;;;;;;;35.21;38.07;99580.66;5014992;28;879;-56
2023/06/15 07:42:44;;;;;;;;;;;;;;;35.26;37.93;99583.34;5015023;28;823;-55
2023/06/15 07:45:11;;;;;;;;;;;;;;;35.35;37.86;99576.19;5014915;28;1882;-55
2023/06/15 07:47:38;;;;;;;;;;;;;;;35.16;38.30;99583.22;5014836;28;838;-56
2023/06/15 07:50:05;;;;;;;;;;;;;;;35.11;37.93;99581.28;5014804;28;894;-56
2023/06/15 07:52:32;;;;;;;;;;;;;;;34.89;38.12;99582.91;5014770;28;799;-56
2023/06/15 07:55:00;;;;;;;;;;;;;;;34.67;39.28;99578.72;5014841;28;866;-56
2023/06/15 07:57:27;;;;;;;;;;;;;;;34.90;38.98;99580.78;5014776;28;804;-56
2023/06/15 07:59:54;;;;;;;;;;;;;;;34.93;38.80;99573.88;5014697;28;807;-55
2023/06/15 08:02:21;;;;;;;;;;;;;;;35.01;38.74;99586.09;5014610;28;891;-55
2023/06/15 08:04:46;;;;;;;;;;;;;;;35.00;38.56;99580.94;5014498;28;1882;-55
2023/06/15 08:07:14;;;;;;;;;;;;;;;35.15;38.49;99580.91;5014531;28;791;-56
2023/06/15 08:09:41;;;;;;;;;;;;;;;34.94;38.28;99575.41;5014484;28;846;-55
2023/06/15 08:12:09;;;;;;;;;;;;;;;34.46;39.06;99584.69;5014621;28;811;-56
2023/06/15 08:14:36;;;;;;;;;;;;;;;34.42;39.16;99586.41;5001347;28;1239;-55
2023/06/15 08:17:03;;;;;;;;;;;;;;;34.73;39.33;99582.16;5014298;28;934;-55
2023/06/15 08:19:30;;;;;;;;;;;;;;;35.43;38.47;99588.41;5012990;28;1177;-56
2023/06/15 08:21:57;;;;;;;;;;;;;;;35.39;37.88;99585.19;5014297;28;807;-56
2023/06/15 08:24:25;;;;;;;;;;;;;;;35.14;38.74;99587.97;5014207;28;1910;-55
2023/06/15 08:26:52;;;;;;;;;;;;;;;35.27;38.79;99575.47;5014169;28;855;-55
2023/06/15 08:29:18;;;;;;;;;;;;;;;35.21;37.91;99587.19;5014104;28;870;-55
2023/06/15 08:31:46;;;;;;;;;;;;;;;34.93;38.04;99588.22;5014101;28;874;-55
2023/06/15 08:34:12;;;;;;;;;;;;;;;34.23;38.64;99595.44;5014110;28;799;-55
2023/06/15 08:36:40;;;;;;;;;;;;;;;32.83;42.12;99595.56;5013977;28;893;-56
2023/06/15 08:39:07;;;;;;;;;;;;;;;33.14;41.47;99587.94;5013998;28;862;-53
2023/06/15 08:41:37;;;;;;;;;;;;;;;33.71;40.77;99584.09;5013847;28;1198;-55
2023/06/15 08:44:05;;;;;;;;;;;;;;;33.76;40.31;99581.03;5013812;28;1878;-56
2023/06/15 08:46:32;;;;;;;;;;;;;;;33.58;40.29;99573.53;5013082;28;799;-55
2023/06/15 08:49:00;;;;;;;;;;;;;;;33.74;40.29;99574.38;5013618;28;827;-56
2023/06/15 08:51:27;;;;;;;;;;;;;;;33.64;40.11;99576.25;4996158;28;1336;-55
2023/06/15 08:53:57;;;;;;;;;;;;;;;33.68;40.04;99579.50;5013609;28;838;-54
2023/06/15 08:56:26;;;;;;;;;;;;;;;33.79;39.16;99572.63;5013689;28;807;-55
2023/06/15 08:58:53;;;;;;;;;;;;;;;33.58;39.59;99576.38;5013563;28;823;-56
2023/06/15 09:01:23;;;;;;;;;;;;;;;33.96;39.61;99569.97;5013499;28;874;-56
2023/06/15 09:03:54;;;;;;;;;;;;;;;34.21;39.49;99575.16;5013585;28;1941;-55
2023/06/15 09:06:21;;;;;;;;;;;;;;;34.37;39.30;99570.94;5013452;28;811;-55
2023/06/15 09:08:48;;;;;;;;;;;;;;;34.12;38.20;99567.91;5013391;28;791;-55
2023/06/15 09:11:16;;;;;;;;;;;;;;;33.82;38.98;99577.22;5013638;28;944;-55
2023/06/15 09:13:44;;;;;;;;;;;;;;;33.67;38.92;99580.81;5013112;28;1156;-53
2023/06/15 09:16:12;;;;;;;;;;;;;;;33.60;38.91;99573.00;5013204;28;799;-56
2023/06/15 09:18:48;;;;;;;;;;;;;;;33.60;39.08;99579.47;5013075;28;877;-56
2023/06/15 09:21:16;;;;;;;;;;;;;;;33.75;39.16;99579.50;5013123;28;901;-56
2023/06/15 09:23:45;;;;;;;;;;;;;;;33.46;38.08;99573.13;5013060;28;1905;-54
2023/06/15 09:26:27;;;;;;;;;;;;;;;32.89;40.33;99579.75;5013725;28;829;-55
2023/06/15 09:28:57;;;;;;;;;;;;;;;32.67;40.27;99575.47;5013021;28;784;-54
2023/06/15 09:31:34;;;;;;;;;;;;;;;31.90;40.83;99571.97;5012930;28;862;-55
2023/06/15 09:34:08;;;;;;;;;;;;;;;31.46;42.84;99577.44;5012888;28;1036;-55
2023/06/15 09:36:36;;;;;;;;;;;;;;;31.18;42.40;99578.06;5012937;28;792;-55
2023/06/15 09:39:09;;;;;;;;;;;;;;;31.28;42.35;99573.44;4995364;28;843;-56
2023/06/15 10:13:54;;;;;;;;;;;;;;;30.28;42.70;99563.50;4992858;28;668;-54
2023/06/15 10:16:22;;;;;;;;;;;;;;;30.38;42.72;99560.22;4992643;28;570;-56
2023/06/15 10:18:57;;;;;;;;;;;;;;;30.61;42.37;99564.16;4992623;28;897;-55
2023/06/15 10:21:26;;;;;;;;;;;;;;;30.73;41.88;99559.00;4988146;28;1306;-56
2023/06/15 10:24:00;;;;;;;;;;;;;;;30.67;41.76;99561.19;4989845;28;1969;-55
2023/06/15 10:26:27;;;;;;;;;;;;;;;30.54;42.23;99553.41;4992477;28;941;-56
2023/06/15 10:28:59;;;;;;;;;;;;;;;30.73;41.63;99553.31;4992384;28;1077;-56
2023/06/15 10:31:37;;;;;;;;;;;;;;;30.97;42.23;99562.97;4992415;28;933;-55
2023/06/15 10:34:13;;;;;;;;;;;;;;;31.23;40.70;99550.72;4992453;28;815;-55
2023/06/15 10:36:53;;;;;;;;;;;;;;;31.13;40.49;99556.09;4992433;28;858;-56
2023/06/15 10:39:20;;;;;;;;;;;;;;;31.07;40.33;99547.69;4992355;28;913;-55
2023/06/15 10:41:51;;;;;;;;;;;;;;;31.02;40.60;99542.09;4992265;28;858;-56
2023/06/15 10:44:17;;;;;;;;;;;;;;;31.13;40.10;99548.31;4992267;28;1914;-56
2023/06/15 10:46:45;;;;;;;;;;;;;;;31.21;40.09;99547.63;4992292;28;850;-56
2023/06/15 10:49:12;;;;;;;;;;;;;;;31.20;40.34;99534.69;4992539;28;862;-56
2023/06/15 10:51:51;;;;;;;;;;;;;;;31.47;39.30;99541.88;4992210;28;890;-56
2023/06/15 10:54:22;;;;;;;;;;;;;;;31.26;39.41;99541.03;4992179;28;811;-56
2023/06/15 10:56:53;;;;;;;;;;;;;;;31.48;38.80;99531.97;4992133;28;850;-57
2023/06/15 10:59:41;;;;;;;;;;;;;;;31.61;38.55;99530.38;4992316;28;865;-56
2023/06/15 11:02:40;;;;;;;;;;;;;;;32.02;37.94;99532.47;4987636;28;1265;-56
2023/06/15 11:05:10;;;;;;;;;;;;;;;32.45;37.06;99536.75;4969757;28;1878;-56
2023/06/15 11:07:43;;;;;;;;;;;;;;;32.30;36.97;99531.72;4992789;28;768;-56
2023/06/15 11:10:17;;;;;;;;;;;;;;;32.50;36.90;99527.28;4995986;28;1015;-56
2023/06/15 11:12:46;;;;;;;;;;;;;;;32.99;36.70;99534.22;5010150;28;1457;-56
2023/06/15 11:15:13;;;;;;;;;;;;;;;33.46;35.81;99530.16;5014315;28;1200;-56
2023/06/15 11:17:53;;;;;;;;;;;;;;;33.63;34.46;99529.66;5015450;28;870;-56
2023/06/15 11:20:38;;;;;;;;;;;;;;;33.64;34.38;99528.31;5015507;28;803;-56
2023/06/15 11:23:10;;;;;;;;;;;;;;;34.04;33.91;99518.38;5015466;28;862;-56
2023/06/15 11:25:39;;;;;;;;;;;;;;;33.89;33.17;99519.16;5015331;28;1915;-56
2023/06/15 11:28:06;;;;;;;;;;;;;;;33.82;33.16;99508.44;5015330;28;858;-56
2023/06/15 11:30:33;;;;;;;;;;;;;;;33.89;33.39;99519.16;5015183;28;919;-57
2023/06/15 11:33:00;;;;;;;;;;;;;;;33.97;33.50;99514.19;5015226;28;823;-56
2023/06/15 11:35:29;;;;;;;;;;;;;;;33.79;33.51;99516.09;5015148;28;835;-56
2023/06/15 11:37:55;;;;;;;;;;;;;;;33.81;33.83;99510.53;5015150;28;831;-56
2023/06/15 11:40:22;;;;;;;;;;;;;;;33.82;33.01;99514.94;5014962;28;866;-56
2023/06/15 11:42:50;;;;;;;;;;;;;;;33.54;33.00;99522.34;5015028;28;889;-56
2023/06/15 11:45:21;;;;;;;;;;;;;;;33.48;32.37;99513.19;5014881;28;1882;-56
2023/06/15 11:47:47;;;;;;;;;;;;;;;33.45;32.77;99511.44;5014988;28;842;-56
2023/06/15 11:50:19;;;;;;;;;;;;;;;33.33;33.21;99513.16;5014835;28;799;-56
2023/06/15 11:52:46;;;;;;;;;;;;;;;33.35;33.26;99504.72;5015137;28;752;-57
2023/06/15 11:55:15;;;;;;;;;;;;;;;33.13;33.63;99511.94;5015058;28;799;-57
2023/06/15 11:57:43;;;;;;;;;;;;;;;32.63;34.42;99500.69;5014798;28;878;-56
2023/06/15 12:00:12;;;;;;;;;;;;;;;32.53;34.27;99505.38;5014805;28;811;-56
2023/06/15 12:02:40;;;;;;;;;;;;;;;33.02;34.02;99503.69;4997125;28;1288;-56
2023/06/15 12:05:09;;;;;;;;;;;;;;;33.46;33.49;99497.91;5014509;28;1948;-56
2023/06/15 12:07:37;;;;;;;;;;;;;;;33.88;33.47;99500.41;5014654;28;790;-56
2023/06/15 12:10:06;;;;;;;;;;;;;;;33.45;33.94;99493.50;5014555;28;901;-57
2023/06/15 12:12:34;;;;;;;;;;;;;;;32.71;35.04;99492.91;5014298;28;1409;-57
2023/06/15 12:15:02;;;;;;;;;;;;;;;32.63;35.16;99489.22;4996829;28;861;-57
2023/06/15 12:17:31;;;;;;;;;;;;;;;33.01;34.53;99487.81;5014440;28;806;-56
2023/06/15 12:19:59;;;;;;;;;;;;;;;33.36;34.47;99487.00;5013136;28;875;-56
2023/06/15 12:22:52;;;;;;;;;;;;;;;33.80;33.89;99479.59;5014320;28;814;-56
2023/06/15 12:25:38;;;;;;;;;;;;;;;33.92;33.07;99478.63;5012816;28;1942;-56
2023/06/15 12:28:12;;;;;;;;;;;;;;;34.69;32.17;99478.47;5014209;28;799;-56
2023/06/15 12:30:39;;;;;;;;;;;;;;;34.60;31.85;99484.81;5014254;28;838;-57
2023/06/15 12:33:23;;;;;;;;;;;;;;;34.15;32.77;99477.88;5014159;28;835;-56
2023/06/15 12:35:50;;;;;;;;;;;;;;;34.19;32.88;99478.25;5014493;28;878;-56
2023/06/15 12:38:17;;;;;;;;;;;;;;;33.50;32.83;99469.63;5014461;28;806;-56
2023/06/15 12:40:45;;;;;;;;;;;;;;;33.02;33.97;99475.06;5014284;28;807;-56
2023/06/15 12:43:11;;;;;;;;;;;;;;;33.29;33.59;99479.16;5014454;28;870;-56
2023/06/15 12:45:38;;;;;;;;;;;;;;;33.65;33.01;99471.75;5014119;28;1890;-57
2023/06/15 12:48:04;;;;;;;;;;;;;;;34.16;32.59;99456.44;5014039;28;923;-56
2023/06/15 12:50:31;;;;;;;;;;;;;;;34.93;31.85;99456.16;5014110;28;826;-56
2023/06/15 12:52:58;;;;;;;;;;;;;;;35.28;30.64;99459.25;5013798;28;796;-56
2023/06/15 12:55:26;;;;;;;;;;;;;;;35.85;29.90;99455.56;5014118;28;831;-56
2023/06/15 12:57:53;;;;;;;;;;;;;;;36.26;29.61;99453.25;5013809;28;893;-57
2023/06/15 13:00:23;;;;;;;;;;;;;;;35.80;29.90;99445.03;5014061;28;843;-56
2023/06/15 13:02:50;;;;;;;;;;;;;;;35.47;30.01;99452.97;5013359;28;910;-57
2023/06/15 13:05:18;;;;;;;;;;;;;;;35.14;30.72;99450.13;5013501;28;1890;-56
2023/06/15 13:07:46;;;;;;;;;;;;;;;35.55;30.29;99451.56;5013226;28;871;-56
2023/06/15 13:10:12;;;;;;;;;;;;;;;35.53;30.21;99448.53;5013341;28;1011;-56
2023/06/15 13:12:39;;;;;;;;;;;;;;;35.89;29.77;99440.75;5012934;28;1188;-57
2023/06/15 13:15:07;;;;;;;;;;;;;;;36.23;29.65;99439.28;5013375;28;853;-57
2023/06/15 13:17:37;;;;;;;;;;;;;;;35.40;30.12;99442.28;5013318;28;804;-57
2023/06/15 13:20:07;;;;;;;;;;;;;;;34.75;31.36;99435.22;5013141;28;927;-56
2023/06/15 13:22:34;;;;;;;;;;;;;;;34.33;31.40;99430.00;5013194;28;823;-56
2023/06/15 13:25:03;;;;;;;;;;;;;;;34.02;31.89;99424.34;5013115;28;1910;-56
2023/06/15 13:27:31;;;;;;;;;;;;;;;33.66;32.35;99428.22;5013074;28;807;-56
2023/06/15 13:29:58;;;;;;;;;;;;;;;33.64;32.98;99427.28;5013030;28;807;-56
2023/06/15 13:32:25;;;;;;;;;;;;;;;33.35;32.76;99430.28;5012667;28;909;-56
2023/06/15 13:34:52;;;;;;;;;;;;;;;33.18;33.31;99421.47;5013003;28;826;-56
2023/06/15 13:37:19;;;;;;;;;;;;;;;33.03;33.48;99425.84;5013121;28;795;-56